.
WxDataArchive / Data Records for 2011-05-31
2011-05-30 May 2011 2011-06-01

Data Records for Tuesday, 31 May 2011

Time	Temp	Chill	HIndex	Humid	Dewpt	 Wind 	HiWind	WindDir	Rain 	Barom 
-----	----	-----	------	-----	-----	------	------	-------	-----	----- 
00:00	74.6	74.6	74.6	74	65.7	0	0	---	0.00	30.094 
00:05	74.4	74.4	74.4	75	65.9	0	0	---	0.00	30.094 
00:10	74.2	74.2	74.2	76	66.1	0	0	---	0.00	30.094 
00:15	74.0	74.0	74.0	76	65.9	0	0	---	0.00	30.095 
00:20	74.0	74.0	74.0	76	65.9	0	0	---	0.00	30.095 
00:25	73.9	73.9	73.9	77	66.2	0	0	---	0.00	30.095 
00:30	73.9	73.9	73.9	77	66.2	0	0	---	0.00	30.094 
00:35	73.7	73.7	73.7	77	66.0	0	0	---	0.00	30.094 
00:40	73.7	73.7	73.7	77	66.0	0	0	---	0.00	30.094 
00:45	73.5	73.5	73.5	77	65.8	0	0	---	0.00	30.089 
00:50	73.3	73.3	73.3	77	65.6	0	0	---	0.00	30.089 
00:55	73.2	73.2	73.2	78	65.9	0	0	---	0.00	30.089 
01:00	73.2	73.2	73.2	78	65.9	0	0	---	0.00	30.086 
01:05	73.0	73.0	73.0	78	65.7	0	0	---	0.00	30.086 
01:10	73.0	73.0	73.0	79	66.1	0	0	---	0.00	30.086 
01:15	72.8	72.8	72.8	79	65.9	0	0	---	0.00	30.090 
01:20	72.7	72.7	72.7	79	65.8	0	0	---	0.00	30.090 
01:25	72.7	72.7	72.7	80	66.2	0	0	---	0.00	30.090 
01:30	72.5	72.5	72.5	80	66.0	0	0	---	0.00	30.091 
01:35	72.3	72.3	72.3	80	65.8	0	0	---	0.00	30.091 
01:40	72.1	72.1	72.1	81	65.9	0	0	---	0.00	30.091 
01:45	72.0	72.0	72.0	81	65.8	0	0	---	0.00	30.090 
01:50	71.8	71.8	71.8	82	66.0	0	0	---	0.00	30.090 
01:55	71.8	71.8	71.8	82	66.0	0	0	---	0.00	30.090 
02:00	71.6	71.6	71.6	82	65.8	0	0	---	0.00	30.087 
02:05	71.5	71.5	71.5	83	66.1	0	0	---	0.00	30.087 
02:10	71.3	71.3	71.3	83	65.9	0	0	---	0.00	30.087 
02:15	71.3	71.3	71.3	83	65.9	0	0	---	0.00	30.085 
02:20	71.1	71.1	71.1	84	66.0	0	0	---	0.00	30.085 
02:25	70.9	70.9	70.9	84	65.8	0	0	---	0.00	30.085 
02:30	70.8	70.8	70.8	84	65.7	0	0	---	0.00	30.082 
02:35	70.8	70.8	70.8	85	66.1	0	0	---	0.00	30.082 
02:40	70.6	70.6	70.6	85	65.9	0	0	---	0.00	30.082 
02:45	70.4	70.4	70.4	85	65.7	0	0	---	0.00	30.082 
02:50	70.3	70.3	70.3	86	65.9	0	0	---	0.00	30.082 
02:55	70.3	70.3	70.3	86	65.9	0	0	---	0.00	30.082 
03:00	70.1	70.1	70.1	86	65.7	0	0	---	0.00	30.085 
03:05	69.9	69.9	69.9	87	65.8	0	0	---	0.00	30.085 
03:10	69.8	69.8	69.8	87	65.7	0	0	---	0.00	30.085 
03:15	69.8	69.8	69.8	87	65.7	0	0	---	0.00	30.082 
03:20	69.6	69.6	69.6	87	65.6	0	0	---	0.00	30.082 
03:25	69.4	69.4	69.4	88	65.7	0	0	---	0.00	30.082 
03:30	69.4	69.4	69.4	88	65.7	0	0	---	0.00	30.085 
03:35	69.4	69.4	69.4	88	65.7	0	0	---	0.00	30.085 
03:40	69.3	69.3	69.3	88	65.6	0	0	---	0.00	30.085 
03:45	69.3	69.3	69.3	89	65.9	0	0	---	0.00	30.086 
03:50	69.3	69.3	69.3	89	65.9	0	0	---	0.00	30.086 
03:55	69.3	69.3	69.3	89	65.9	0	0	---	0.00	30.086 
04:00	69.3	69.3	69.3	89	65.9	0	0	---	0.00	30.085 
04:05	69.3	69.3	69.3	89	65.9	0	0	---	0.00	30.085 
04:10	69.3	69.3	69.3	90	66.2	0	0	---	0.00	30.085 
04:15	69.3	69.3	69.3	90	66.2	0	0	---	0.00	30.082 
04:20	69.3	69.3	69.3	90	66.2	0	0	---	0.00	30.082 
04:25	69.3	69.3	69.3	90	66.2	0	0	---	0.00	30.082 
04:30	69.4	69.4	69.4	90	66.3	0	0	---	0.00	30.085 
04:35	69.4	69.4	69.4	90	66.3	0	0	---	0.00	30.085 
04:40	69.3	69.3	69.3	90	66.2	0	0	---	0.00	30.085 
04:45	69.3	69.3	69.3	90	66.2	0	0	---	0.00	30.082 
04:50	69.3	69.3	69.3	91	66.6	0	0	---	0.00	30.082 
04:55	69.3	69.3	69.3	91	66.6	0	0	---	0.00	30.082 
05:00	69.3	69.3	69.3	91	66.6	0	0	---	0.00	30.082 
05:05	69.3	69.3	69.3	91	66.6	0	0	---	0.00	30.082 
05:10	69.3	69.3	69.3	91	66.6	0	0	---	0.00	30.082 
05:15	69.4	69.4	69.4	91	66.7	0	0	---	0.00	30.085 
05:20	69.4	69.4	69.4	91	66.7	0	0	---	0.00	30.085 
05:25	69.4	69.4	69.4	91	66.7	0	0	---	0.00	30.085 
05:30	69.4	69.4	69.4	91	66.7	0	0	---	0.00	30.084 
05:35	69.4	69.4	69.4	91	66.7	0	0	---	0.00	30.084 
05:40	69.4	69.4	69.4	91	66.7	0	0	---	0.00	30.084 
05:45	69.3	69.3	69.3	91	66.6	0	0	---	0.00	30.087 
05:50	69.3	69.3	69.3	91	66.6	0	0	---	0.00	30.087 
05:55	69.1	69.1	69.1	91	66.4	0	0	---	0.00	30.087 
06:00	69.1	69.1	69.1	91	66.4	0	0	---	0.00	30.095 
06:05	68.9	68.9	68.9	91	66.2	0	0	---	0.00	30.095 
06:10	68.8	68.8	68.8	91	66.1	0	0	---	0.00	30.095 
06:15	68.8	68.8	68.8	92	66.4	0	0	---	0.00	30.099 
06:20	68.6	68.6	68.6	92	66.2	0	0	---	0.00	30.099 
06:25	68.4	68.4	68.4	92	66.0	0	0	---	0.00	30.099 
06:30	68.4	68.4	68.4	92	66.0	0	0	---	0.00	30.101 
06:35	68.3	68.3	68.3	92	65.9	0	0	---	0.00	30.101 
06:40	68.4	68.4	68.4	92	66.0	0	0	---	0.00	30.101 
06:45	68.6	68.6	68.6	92	66.2	0	0	---	0.00	30.106 
06:50	68.8	68.8	68.8	92	66.4	0	0	---	0.00	30.106 
06:55	68.9	68.9	68.9	93	66.8	0	0	---	0.00	30.106 
07:00	69.1	69.1	69.1	93	67.0	0	0	---	0.00	30.113 
07:05	69.4	69.4	69.4	93	67.3	0	0	---	0.00	30.113 
07:10	69.8	69.8	69.8	92	67.4	0	0	---	0.00	30.113 
07:15	70.1	70.1	70.1	92	67.7	0	0	---	0.00	30.118 
07:20	70.4	70.4	70.4	92	68.0	0	0	---	0.00	30.118 
07:25	70.9	70.9	70.9	92	68.5	0	0	---	0.00	30.118 
07:30	71.6	71.6	71.6	91	68.8	0	1	112	0.00	30.124 
07:35	72.3	72.3	72.3	90	69.2	0	0	---	0.00	30.124 
07:40	73.2	73.2	73.2	88	69.4	0	1	112	0.00	30.124 
07:45	73.9	73.9	73.9	85	69.1	0	0	---	0.00	30.126 
07:50	74.4	74.4	74.4	84	69.2	0	1	112	0.00	30.126 
07:55	74.7	74.7	74.7	83	69.2	0	2	112	0.00	30.126 
08:00	75.4	75.4	76.0	81	69.1	0	2	338	0.00	30.139 
08:05	76.0	76.0	77.0	80	69.4	0	3	270	0.00	30.139 
08:10	76.3	76.3	77.5	79	69.3	0	2	270	0.00	30.139 
08:15	76.7	76.7	78.2	78	69.3	1	2	270	0.00	30.140 
08:20	76.7	76.7	78.2	78	69.3	0	1	270	0.00	30.140 
08:25	76.7	76.7	78.2	78	69.3	0	3	270	0.00	30.140 
08:30	77.0	77.0	78.6	78	69.6	1	3	270	0.00	30.143 
08:35	77.4	77.4	79.3	76	69.2	1	3	270	0.00	30.143 
08:40	77.6	77.6	79.6	77	69.8	0	2	270	0.00	30.143 
08:45	77.7	77.7	79.7	76	69.5	0	2	270	0.00	30.150 
08:50	78.1	78.1	80.3	75	69.5	1	4	270	0.00	30.150 
08:55	78.5	78.5	80.9	74	69.5	1	3	270	0.00	30.150 
09:00	79.0	79.0	81.6	73	69.6	1	3	292	0.00	30.154 
09:05	79.6	79.6	82.5	72	69.8	1	3	292	0.00	30.154 
09:10	80.1	80.1	83.1	70	69.4	1	3	292	0.00	30.154 
09:15	80.5	80.5	83.6	69	69.4	1	3	270	0.00	30.156 
09:20	80.9	80.9	84.0	67	68.9	1	4	270	0.00	30.156 
09:25	81.1	81.1	84.3	67	69.1	2	4	248	0.00	30.156 
09:30	81.4	81.4	85.0	68	69.8	1	4	248	0.00	30.152 
09:35	81.6	81.6	85.1	67	69.6	2	4	292	0.00	30.152 
09:40	81.8	81.8	85.5	67	69.7	2	4	270	0.00	30.152 
09:45	82.0	82.0	85.4	65	69.0	2	4	270	0.00	30.153 
09:50	82.2	82.2	85.7	65	69.2	1	4	270	0.00	30.153 
09:55	82.6	82.6	86.4	65	69.6	1	3	270	0.00	30.153 
10:00	83.0	83.0	87.3	66	70.4	1	3	270	0.00	30.153 
10:05	83.0	83.0	86.4	62	68.6	2	5	292	0.00	30.153 
10:10	83.0	83.0	86.4	62	68.6	2	5	248	0.00	30.153 
10:15	83.2	83.2	87.2	64	69.7	2	5	248	0.00	30.157 
10:20	83.4	83.4	87.0	62	69.0	2	4	270	0.00	30.157 
10:25	83.8	83.8	87.7	62	69.4	2	5	270	0.00	30.157 
10:30	83.8	83.8	87.5	61	68.9	3	6	270	0.00	30.161 
10:35	84.1	84.1	88.2	62	69.6	2	3	270	0.00	30.161 
10:40	84.3	84.3	87.5	58	67.9	3	6	270	0.00	30.161 
10:45	84.3	84.3	87.5	58	67.9	3	7	270	0.00	30.161 
10:50	84.7	84.7	87.9	57	67.7	2	6	270	0.00	30.161 
10:55	84.9	84.9	87.9	56	67.4	3	9	270	0.00	30.161 
11:00	85.1	85.1	88.5	57	68.1	2	6	270	0.00	30.159 
11:05	85.3	85.3	88.2	55	67.3	3	7	270	0.00	30.159 
11:10	85.3	85.3	88.2	55	67.3	4	8	270	0.00	30.159 
11:15	85.5	85.5	88.6	55	67.5	2	4	270	0.00	30.161 
11:20	85.7	85.7	88.9	55	67.6	2	5	248	0.00	30.161 
11:25	85.9	85.9	89.2	55	67.8	2	6	270	0.00	30.161 
11:30	86.1	86.1	89.2	54	67.5	3	5	270	0.00	30.159 
11:35	86.5	86.5	89.9	54	67.8	2	5	270	0.00	30.159 
11:40	86.3	86.3	89.3	53	67.1	3	7	270	0.00	30.159 
11:45	86.5	86.5	90.3	55	68.4	2	5	248	0.00	30.159 
11:50	87.0	87.0	90.1	52	67.2	2	5	248	0.00	30.159 
11:55	87.2	87.2	91.1	54	68.5	2	5	270	0.00	30.159 
12:00	87.6	87.6	91.8	54	68.9	2	4	270	0.00	30.155 
12:05	87.6	87.6	90.4	50	66.6	2	5	270	0.00	30.155 
12:10	87.4	87.4	90.1	50	66.4	3	6	270	0.00	30.155 
12:15	87.4	87.4	90.4	51	67.0	3	6	270	0.00	30.158 
12:20	87.4	87.4	91.1	53	68.1	2	5	270	0.00	30.158 
12:25	87.8	87.8	91.8	53	68.5	2	6	292	0.00	30.158 
12:30	88.2	88.2	91.4	50	67.2	2	5	292	0.00	30.153 
12:35	88.2	88.2	91.4	50	67.2	2	6	292	0.00	30.153 
12:40	88.4	88.4	91.3	49	66.8	3	7	248	0.00	30.153 
12:45	88.2	88.2	90.7	48	66.0	3	6	248	0.00	30.151 
12:50	88.4	88.4	91.3	49	66.8	3	5	270	0.00	30.151 
12:55	88.4	88.4	91.0	48	66.2	3	6	270	0.00	30.151 
13:00	88.6	88.6	92.1	50	67.5	2	6	270	0.00	30.143 
13:05	88.6	88.6	91.3	48	66.4	3	6	270	0.00	30.143 
13:10	88.8	88.8	90.9	46	65.3	3	10	270	0.00	30.143 
13:15	88.8	88.8	90.9	46	65.3	3	7	248	0.00	30.143 
13:20	89.0	89.0	91.6	47	66.1	3	5	248	0.00	30.143 
13:25	89.0	89.0	92.4	49	67.3	3	6	270	0.00	30.143 
13:30	89.0	89.0	91.6	47	66.1	3	7	270	0.00	30.141 
13:35	88.8	88.8	92.0	49	67.1	4	7	270	0.00	30.141 
13:40	88.8	88.8	90.9	46	65.3	3	6	270	0.00	30.141 
13:45	88.8	88.8	90.9	46	65.3	3	7	270	0.00	30.132 
13:50	88.8	88.8	91.3	47	65.9	3	7	270	0.00	30.132 
13:55	89.0	89.0	92.0	48	66.7	2	5	270	0.00	30.132 
14:00	89.5	89.5	92.1	46	65.9	2	5	270	0.00	30.125 
14:05	89.7	89.7	92.8	47	66.7	2	6	270	0.00	30.125 
14:10	89.7	89.7	92.4	46	66.1	2	6	248	0.00	30.125 
14:15	89.7	89.7	93.2	48	67.4	2	5	270	0.00	30.111 
14:20	89.9	89.9	92.7	46	66.3	2	6	270	0.00	30.111 
14:25	90.1	90.1	93.9	48	67.7	1	4	270	0.00	30.111 
14:30	89.9	89.9	93.1	47	66.9	2	5	270	0.00	30.097 
14:35	89.7	89.7	93.6	49	68.0	2	5	292	0.00	30.097 
14:40	89.5	89.5	92.4	47	66.6	2	5	248	0.00	30.097 
14:45	89.5	89.5	92.1	46	65.9	2	5	248	0.00	30.102 
14:50	89.7	89.7	92.0	45	65.5	3	9	248	0.00	30.102 
14:55	90.1	90.1	93.1	46	66.5	2	5	270	0.00	30.102 
15:00	89.9	89.9	92.3	45	65.7	2	5	270	0.00	30.108 
15:05	89.5	89.5	91.7	45	65.3	2	5	248	0.00	30.108 
15:10	89.5	89.5	92.1	46	65.9	2	6	248	0.00	30.108 
15:15	89.7	89.7	92.8	47	66.7	1	4	315	0.00	30.105 
15:20	89.7	89.7	92.0	45	65.5	2	7	225	0.00	30.105 
15:25	89.9	89.9	92.3	45	65.7	2	6	248	0.00	30.105 
15:30	90.3	90.3	93.0	45	66.0	2	6	270	0.00	30.093 
15:35	90.5	90.5	92.9	44	65.6	2	5	270	0.00	30.093 
15:40	90.5	90.5	93.3	45	66.2	2	9	315	0.00	30.093 
15:45	90.7	90.7	92.1	41	63.7	3	7	270	0.00	30.070 
15:50	90.7	90.7	93.7	45	66.4	2	9	270	0.00	30.070 
15:55	91.0	91.0	93.4	43	65.4	1	4	270	0.00	30.070 
16:00	91.0	91.0	93.0	42	64.7	2	5	248	0.00	30.077 
16:05	91.0	91.0	92.6	41	64.0	2	6	248	0.00	30.077 
16:10	91.0	91.0	93.4	43	65.4	2	6	270	0.00	30.077 
16:15	90.7	90.7	93.3	44	65.7	1	3	292	0.00	30.067 
16:20	91.0	91.0	93.4	43	65.4	2	5	248	0.00	30.067 
16:25	90.7	90.7	92.5	42	64.4	3	11	270	0.00	30.067 
16:30	90.5	90.5	92.2	42	64.2	2	5	270	0.00	30.065 
16:35	91.0	91.0	93.4	43	65.4	2	5	270	0.00	30.065 
16:40	91.2	91.2	93.3	42	64.9	2	7	270	0.00	30.065 
16:45	91.0	91.0	91.8	39	62.6	3	7	270	0.00	30.064 
16:50	90.3	90.3	91.5	41	63.4	2	6	270	0.00	30.064 
16:55	89.5	89.5	91.0	43	64.0	2	5	270	0.00	30.064 
17:00	88.8	88.8	89.9	43	63.4	2	9	270	0.00	30.056 
17:05	88.4	88.4	89.0	42	62.3	2	7	248	0.00	30.056 
17:10	88.6	88.6	89.6	43	63.2	2	5	270	0.00	30.056 
17:15	88.6	88.6	89.3	42	62.5	2	5	248	0.00	30.064 
17:20	88.8	88.8	89.9	43	63.4	2	5	270	0.00	30.064 
17:25	88.8	88.8	89.9	43	63.4	2	7	270	0.00	30.064 
17:30	88.8	88.8	90.2	44	64.0	1	4	248	0.00	30.065 
17:35	88.6	88.6	89.9	44	63.9	1	4	248	0.00	30.065 
17:40	88.4	88.4	89.6	44	63.7	2	5	248	0.00	30.065 
17:45	88.4	88.4	89.3	43	63.0	2	5	270	0.00	30.069 
17:50	88.4	88.4	89.6	44	63.7	2	5	270	0.00	30.069 
17:55	88.4	88.4	90.3	46	64.9	1	3	315	0.00	30.069 
18:00	88.2	88.2	89.7	45	64.1	2	6	248	0.00	30.072 
18:05	88.0	88.0	89.7	46	64.6	2	5	248	0.00	30.072 
18:10	87.8	87.8	89.1	45	63.8	2	5	248	0.00	30.072 
18:15	87.8	87.8	89.4	46	64.4	2	6	270	0.00	30.077 
18:20	87.8	87.8	89.4	46	64.4	2	5	270	0.00	30.077 
18:25	88.0	88.0	90.0	47	65.2	2	6	270	0.00	30.077 
18:30	88.0	88.0	89.7	46	64.6	2	4	270	0.00	30.074 
18:35	88.0	88.0	89.7	46	64.6	1	4	270	0.00	30.074 
18:40	88.0	88.0	90.0	47	65.2	1	3	248	0.00	30.074 
18:45	87.8	87.8	89.1	45	63.8	2	4	248	0.00	30.068 
18:50	87.6	87.6	89.1	46	64.2	1	4	248	0.00	30.068 
18:55	87.2	87.2	88.5	46	63.9	2	4	270	0.00	30.068 
19:00	87.2	87.2	88.5	46	63.9	2	5	270	0.00	30.055 
19:05	87.0	87.0	88.5	47	64.3	1	4	270	0.00	30.055 
19:10	86.7	86.7	88.1	47	64.0	1	4	270	0.00	30.055 
19:15	86.5	86.5	88.1	48	64.4	1	3	270	0.00	30.058 
19:20	86.5	86.5	87.8	47	63.8	2	4	270	0.00	30.058 
19:25	86.5	86.5	87.8	47	63.8	2	3	270	0.00	30.058 
19:30	86.5	86.5	87.8	47	63.8	1	4	270	0.00	30.058 
19:35	86.5	86.5	88.1	48	64.4	1	3	270	0.00	30.058 
19:40	86.3	86.3	88.0	49	64.9	1	4	270	0.00	30.058 
19:45	86.1	86.1	87.8	49	64.7	2	4	270	0.00	30.056 
19:50	86.1	86.1	88.0	50	65.3	1	3	270	0.00	30.056 
19:55	86.3	86.3	88.3	50	65.4	1	4	270	0.00	30.056 
20:00	86.1	86.1	88.0	50	65.3	2	5	270	0.00	30.061 
20:05	86.1	86.1	88.0	50	65.3	1	3	270	0.00	30.061 
20:10	85.7	85.7	87.7	51	65.5	1	4	270	0.00	30.061 
20:15	85.5	85.5	87.7	52	65.8	1	3	270	0.00	30.060 
20:20	85.3	85.3	87.4	52	65.6	1	3	270	0.00	30.060 
20:25	85.1	85.1	87.4	53	66.0	0	2	270	0.00	30.060 
20:30	84.9	84.9	87.1	53	65.8	1	2	270	0.00	30.057 
20:35	84.5	84.5	86.7	54	66.0	1	3	270	0.00	30.057 
20:40	84.3	84.3	86.5	54	65.8	1	2	270	0.00	30.057 
20:45	84.3	84.3	86.5	54	65.8	1	3	270	0.00	30.059 
20:50	84.1	84.1	86.2	54	65.6	1	2	270	0.00	30.059 
20:55	84.0	84.0	86.3	55	66.1	0	2	270	0.00	30.059 
21:00	83.6	83.6	85.7	55	65.7	1	4	270	0.00	30.055 
21:05	83.6	83.6	85.5	54	65.2	1	4	270	0.00	30.055 
21:10	83.4	83.4	85.2	54	65.0	1	3	270	0.00	30.055 
21:15	83.4	83.4	85.2	54	65.0	1	4	315	0.00	30.050 
21:20	83.4	83.4	85.2	54	65.0	1	5	248	0.00	30.050 
21:25	83.2	83.2	84.9	54	64.8	1	3	270	0.00	30.050 
21:30	83.0	83.0	84.7	54	64.6	0	2	270	0.00	30.055 
21:35	82.8	82.8	84.4	54	64.4	0	2	292	0.00	30.055 
21:40	82.6	82.6	84.3	55	64.8	0	2	0	0.00	30.055 
21:45	82.4	82.4	84.1	55	64.6	0	3	315	0.00	30.060 
21:50	82.2	82.2	83.8	55	64.4	1	3	315	0.00	30.060 
21:55	82.2	82.2	84.0	56	64.9	0	2	315	0.00	30.060 
22:00	82.0	82.0	83.7	56	64.7	1	3	248	0.00	30.062 
22:05	81.8	81.8	83.5	56	64.5	1	3	248	0.00	30.062 
22:10	81.8	81.8	83.5	56	64.5	1	3	270	0.00	30.062 
22:15	81.8	81.8	83.5	56	64.5	1	2	270	0.00	30.062 
22:20	81.6	81.6	83.4	57	64.9	1	5	270	0.00	30.062 
22:25	81.4	81.4	83.3	58	65.2	0	3	270	0.00	30.062 
22:30	81.2	81.2	83.0	58	65.0	0	2	270	0.00	30.071 
22:35	81.2	81.2	83.0	58	65.0	1	3	270	0.00	30.071 
22:40	81.1	81.1	82.9	58	64.9	0	3	202	0.00	30.071 
22:45	80.9	80.9	82.8	59	65.2	0	1	202	0.00	30.074 
22:50	80.7	80.7	82.7	60	65.5	0	2	202	0.00	30.074 
22:55	80.7	80.7	82.7	60	65.5	0	1	202	0.00	30.074 
23:00	80.5	80.5	82.4	60	65.3	0	2	202	0.00	30.074 
23:05	80.3	80.3	82.3	61	65.6	0	3	202	0.00	30.074 
23:10	80.1	80.1	82.0	61	65.4	0	3	248	0.00	30.074 
23:15	80.1	80.1	82.2	62	65.9	0	1	248	0.00	30.074 
23:20	79.8	79.8	81.8	62	65.6	0	2	248	0.00	30.074 
23:25	79.8	79.8	81.8	62	65.6	0	2	248	0.00	30.074 
23:30	79.6	79.6	81.6	63	65.9	0	1	248	0.00	30.074 
23:35	79.4	79.4	81.4	63	65.7	0	1	248	0.00	30.074 
23:40	79.2	79.2	81.2	64	65.9	0	2	315	0.00	30.074 
23:45	79.0	79.0	81.0	64	65.8	0	2	315	0.00	30.076 
23:50	79.0	79.0	81.0	64	65.8	0	2	315	0.00	30.076 
23:55	79.0	79.0	81.0	65	66.2	0	1	315	0.00	30.076 

CoCoRaHS
IN-AL-39
A2 Web Hosting
Creative Commons License
GoDaddy
search engine by freefind advanced

loaded 2018-11-16 10:58:22 • last modified 2010-11-18 10:43:29
Privacy PolicyDisclaimer
• wx.awcolley.com is powered by PmWiki v.2002016 •
• all content (unless otherwise noted) © 2018 A W Colley